UPSVAC Airport Information Service

Mumbai / Santacruz

ICAO: VABB Country: India, AS
Latitude: 19.0887 Longitude: 72.8679
Latest Arrival : UPS521 (VHHH-VABB) Latest Departure : UPSJUMP (VABB-VHHH)


WX CaptureLIVE
Data provided by noaa.gov | Fetched at 14:55:47

METAR : VABB 141430Z 28007KT 3000 HZ FEW020 30/26 Q1009 NOSIG

TAF : VABB 141100Z 1412/1518 28010KT 4000 FU SCT020 SCT100 TEMPO 1414/1422 2000 -TSRA -RA SCT018 FEW030CB BKN090 BECMG 1415/1417 25005KT 3000 HZ FEW020 SCT100 BECMG 1501/1503 12004KT SCT020 BECMG 1506/1508 27010KT 4000 FU FEW020 BECMG 1515/1517 29005KT 3000 HZ NSC


Runway Data for VABB
Data provided by openaviationdata.com

Runway ID Mag Var Hdg Length Elevation Surface ILS Freq ILS Id ILS Slope
9 -1 91° 11337 ft 37 ft Asphalt 109.5 IBOM 3
14 -1 136° 9622 ft 37 ft Asphalt 110.1 IBBY 3
27 -1 271° 11337 ft 37 ft Asphalt 110.3 ISCZ 3
32 -1 316° 9622 ft 37 ft Asphalt -- -- --

Mumbai / Santacruz, India, AS
Use only for reference purposes



Not for navigational purposes.